Time;durP1;ratioP1;P1;durP2;ratioP2;P2;SDS_P1;SDS_P2;PMS_P1;PMS_P2;Temp;Humidity;BMP_temperature;BMP_pressure;BME280_temperature;BME280_humidity;BME280_pressure;Samples;Min_cycle;Max_cycle;Signal;HPM_P1;HPM_P2
2021/07/26 04:01:40;;;;;;;19.73;18.47;;;17.90;99.90;;;;;;5888697;23;20568;-78
2021/07/26 04:04:07;;;;;;;16.90;15.90;;;17.90;99.90;;;;;;5000306;28;20945;-80
2021/07/26 04:06:34;;;;;;;18.03;17.03;;;18.00;99.90;;;;;;5012970;28;20449;-81
2021/07/26 04:09:01;;;;;;;19.47;17.93;;;18.00;99.90;;;;;;5013243;28;20458;-78
2021/07/26 04:11:31;;;;;;;19.27;18.17;;;18.00;99.90;;;;;;5013088;28;20496;-82
2021/07/26 04:14:03;;;;;;;19.17;17.70;;;18.00;99.90;;;;;;5013137;28;20552;-81
2021/07/26 04:16:29;;;;;;;18.37;17.27;;;18.00;99.90;;;;;;5013054;28;20496;-81
2021/07/26 04:19:00;;;;;;;19.13;17.70;;;18.00;99.90;;;;;;5013100;28;20461;-80
2021/07/26 04:21:30;;;;;;;17.60;16.70;;;18.00;99.90;;;;;;5013300;28;21019;-80
2021/07/26 04:23:56;;;;;;;17.53;16.63;;;18.00;99.90;;;;;;5013228;28;20488;-77
2021/07/26 04:26:23;;;;;;;18.77;17.40;;;18.00;99.90;;;;;;5013453;28;20454;-78
2021/07/26 04:28:50;;;;;;;17.93;16.77;;;17.90;99.90;;;;;;5013487;28;20815;-79
2021/07/26 04:31:17;;;;;;;17.77;16.70;;;17.90;99.90;;;;;;5012883;28;20492;-79
2021/07/26 04:33:43;;;;;;;18.63;17.53;;;17.90;99.90;;;;;;5012908;28;21148;-78
2021/07/26 04:36:11;;;;;;;18.70;17.50;;;17.90;99.90;;;;;;5013055;28;20462;-80
2021/07/26 04:38:38;;;;;;;18.20;17.10;;;18.00;99.90;;;;;;5013058;28;20529;-80
2021/07/26 04:41:04;;;;;;;18.33;17.40;;;18.00;99.90;;;;;;5013019;28;20438;-79
2021/07/26 04:43:32;;;;;;;18.90;17.80;;;18.10;99.90;;;;;;5012875;28;20825;-79
2021/07/26 04:45:59;;;;;;;18.03;17.00;;;18.10;99.90;;;;;;5012854;28;20453;-76
2021/07/26 04:48:26;;;;;;;19.13;17.80;;;18.10;99.90;;;;;;5012785;28;20512;-75
2021/07/26 04:50:52;;;;;;;19.27;18.20;;;18.20;99.90;;;;;;5012794;28;20490;-79
2021/07/26 04:53:20;;;;;;;18.13;17.20;;;18.20;99.90;;;;;;5012802;28;20450;-78
2021/07/26 04:55:47;;;;;;;17.67;16.57;;;18.30;99.90;;;;;;5012674;28;20457;-77
2021/07/26 04:58:14;;;;;;;17.50;16.50;;;18.30;99.90;;;;;;5012296;28;20813;-77
2021/07/26 05:00:40;;;;;;;17.43;16.43;;;18.30;99.90;;;;;;5011846;28;20481;-79
2021/07/26 05:03:08;;;;;;;19.50;17.97;;;18.30;99.90;;;;;;5012539;28;20477;-80
2021/07/26 05:05:36;;;;;;;20.33;19.13;;;18.30;99.90;;;;;;5012294;28;20816;-79
2021/07/26 05:08:03;;;;;;;24.30;22.60;;;18.30;99.90;;;;;;5012491;28;20508;-77
2021/07/26 05:10:31;;;;;;;22.70;21.03;;;18.20;99.90;;;;;;5012399;28;20473;-78
2021/07/26 05:12:57;;;;;;;21.37;20.00;;;18.30;99.90;;;;;;5012451;28;20457;-78
2021/07/26 05:15:24;;;;;;;18.87;17.83;;;18.30;99.90;;;;;;5012414;28;20457;-79
2021/07/26 05:17:51;;;;;;;18.73;17.50;;;18.30;99.90;;;;;;5012043;28;20463;-74
2021/07/26 05:20:18;;;;;;;19.50;18.30;;;18.40;99.90;;;;;;5011438;28;20454;-74
2021/07/26 05:22:44;;;;;;;18.57;17.27;;;18.50;99.90;;;;;;5011444;28;20735;-74
2021/07/26 05:25:11;;;;;;;19.33;17.87;;;18.60;99.90;;;;;;5012327;28;20443;-74
2021/07/26 05:27:39;;;;;;;20.07;18.40;;;18.60;99.90;;;;;;5012385;28;20449;-74
2021/07/26 05:30:08;;;;;;;18.73;17.47;;;18.70;99.90;;;;;;5011979;28;20438;-74
2021/07/26 05:32:34;;;;;;;17.37;16.37;;;18.70;99.90;;;;;;5011750;28;20894;-74
2021/07/26 05:35:01;;;;;;;19.17;17.97;;;18.80;99.90;;;;;;5012121;28;20450;-74
2021/07/26 05:37:28;;;;;;;18.07;17.10;;;18.80;99.90;;;;;;5011810;28;20460;-74
2021/07/26 05:39:54;;;;;;;20.30;18.60;;;18.90;99.90;;;;;;5012070;28;20862;-73
2021/07/26 05:42:21;;;;;;;18.33;17.10;;;18.90;99.90;;;;;;5011797;28;20473;-74
2021/07/26 05:44:49;;;;;;;19.30;17.70;;;19.00;99.90;;;;;;5012183;28;20454;-74
2021/07/26 05:47:16;;;;;;;21.00;19.20;;;19.00;99.90;;;;;;5011945;28;20472;-74
2021/07/26 05:49:43;;;;;;;19.47;18.27;;;18.90;99.90;;;;;;5011949;28;20461;-74
2021/07/26 05:52:10;;;;;;;19.47;17.80;;;19.00;99.90;;;;;;5011486;28;21004;-74
2021/07/26 05:54:36;;;;;;;18.03;16.70;;;19.20;99.90;;;;;;5011612;28;20453;-74
2021/07/26 05:57:09;;;;;;;18.20;16.60;;;19.60;99.90;;;;;;5011706;28;20825;-74
2021/07/26 05:59:36;;;;;;;17.37;16.10;;;20.30;99.90;;;;;;5011596;28;20458;-75
2021/07/26 06:02:04;;;;;;;18.23;17.00;;;21.30;99.90;;;;;;5011228;28;20481;-74
2021/07/26 06:04:31;;;;;;;17.07;16.07;;;22.10;99.90;;;;;;5011392;28;20454;-75
2021/07/26 06:06:58;;;;;;;18.37;17.00;;;22.90;99.90;;;;;;5011725;28;20446;-73
2021/07/26 06:09:26;;;;;;;18.27;17.10;;;23.60;99.90;;;;;;5011380;28;20473;-75
2021/07/26 06:11:54;;;;;;;15.83;14.93;;;24.20;99.90;;;;;;5010588;28;20584;-75
2021/07/26 06:14:21;;;;;;;15.80;14.40;;;24.40;99.90;;;;;;5011463;28;20458;-74
2021/07/26 06:16:49;;;;;;;16.27;15.27;;;24.20;99.90;;;;;;5011175;28;20454;-75
2021/07/26 06:19:18;;;;;;;15.43;14.63;;;24.20;99.90;;;;;;5011204;28;20453;-75
2021/07/26 06:21:47;;;;;;;15.73;14.77;;;24.10;99.90;;;;;;5011102;28;20449;-75
2021/07/26 06:24:15;;;;;;;16.43;15.63;;;24.10;99.90;;;;;;5011203;28;20465;-75
2021/07/26 06:26:42;;;;;;;15.37;14.67;;;24.50;99.90;;;;;;5010981;28;20465;-75
2021/07/26 06:29:09;;;;;;;16.17;14.80;;;25.00;99.90;;;;;;5010927;28;20458;-74
2021/07/26 06:31:37;;;;;;;15.60;14.80;;;25.60;99.90;;;;;;5011100;28;20493;-75
2021/07/26 06:34:05;;;;;;;15.27;14.57;;;26.20;99.90;;;;;;5011260;28;20458;-75
2021/07/26 06:36:33;;;;;;;15.50;14.80;;;26.80;99.90;;;;;;5010817;28;20464;-75
2021/07/26 06:39:00;;;;;;;15.90;14.87;;;27.00;99.90;;;;;;5010076;28;20577;-75
2021/07/26 06:41:27;;;;;;;16.10;15.23;;;27.10;99.90;;;;;;5010563;28;20930;-75
2021/07/26 06:43:54;;;;;;;15.43;14.63;;;27.30;99.90;;;;;;5010801;28;20492;-74
2021/07/26 06:46:21;;;;;;;16.07;15.17;;;27.50;99.60;;;;;;5010798;28;20461;-75
2021/07/26 06:48:48;;;;;;;16.47;15.47;;;27.70;98.50;;;;;;5011061;28;20461;-83
2021/07/26 06:51:15;;;;;;;16.60;15.80;;;28.00;97.90;;;;;;5010830;28;20488;-82
2021/07/26 06:53:43;;;;;;;15.60;14.73;;;28.70;96.50;;;;;;5010608;28;20461;-84
2021/07/26 06:56:11;;;;;;;17.07;15.73;;;29.40;95.00;;;;;;5010839;28;20454;-78
2021/07/26 06:58:38;;;;;;;16.17;15.30;;;29.10;94.90;;;;;;5011009;28;20525;-78
2021/07/26 07:01:07;;;;;;;16.33;15.43;;;28.70;96.20;;;;;;5010594;28;20469;-78
2021/07/26 07:03:33;;;;;;;17.37;16.47;;;28.80;96.10;;;;;;5010323;28;20512;-78
2021/07/26 07:06:03;;;;;;;17.10;16.20;;;28.80;95.90;;;;;;5010454;28;20454;-78
2021/07/26 07:08:30;;;;;;;15.20;14.40;;;28.10;96.20;;;;;;5010335;28;20454;-78
2021/07/26 07:11:06;;;;;;;15.30;14.50;;;27.80;97.30;;;;;;5010163;28;20450;-79
2021/07/26 07:13:33;;;;;;;16.37;15.47;;;28.10;96.80;;;;;;5010307;28;20499;-80
2021/07/26 07:16:00;;;;;;;15.83;15.00;;;28.30;96.40;;;;;;5010212;28;20512;-79
2021/07/26 07:18:26;;;;;;;18.33;17.30;;;28.00;96.60;;;;;;5010058;28;20457;-79
2021/07/26 07:20:53;;;;;;;16.00;14.93;;;27.40;97.20;;;;;;5010216;28;20461;-78
2021/07/26 07:23:20;;;;;;;16.37;15.47;;;27.00;98.40;;;;;;5012538;28;20464;-79
2021/07/26 07:25:46;;;;;;;16.70;15.37;;;26.90;98.30;;;;;;5013932;28;20454;-79
2021/07/26 07:28:14;;;;;;;17.03;15.77;;;26.80;98.60;;;;;;5013452;28;20466;-79
2021/07/26 07:30:41;;;;;;;16.27;15.37;;;27.10;98.30;;;;;;5013905;28;20453;-79
2021/07/26 07:33:08;;;;;;;13.67;13.07;;;27.20;98.70;;;;;;5014094;28;20482;-78
2021/07/26 07:35:34;;;;;;;15.00;14.30;;;26.80;99.00;;;;;;5013878;28;20461;-78
2021/07/26 07:38:01;;;;;;;16.83;15.70;;;26.30;99.90;;;;;;5014011;28;20477;-79
2021/07/26 07:40:28;;;;;;;16.70;15.90;;;26.20;99.90;;;;;;5013692;28;20956;-79
2021/07/26 07:42:55;;;;;;;16.30;15.40;;;26.50;99.80;;;;;;5013801;28;20468;-79
2021/07/26 07:45:23;;;;;;;16.00;15.10;;;27.00;99.60;;;;;;5013763;28;20861;-79
2021/07/26 07:47:52;;;;;;;15.77;14.87;;;27.40;98.40;;;;;;5013855;28;20453;-79
2021/07/26 07:51:18;;;;;;;15.53;14.83;;;27.60;98.30;;;;;;5013652;28;20874;-79
2021/07/26 07:53:45;;;;;;;16.07;15.17;;;27.50;98.50;;;;;;5001443;28;21158;-77
2021/07/26 07:56:11;;;;;;;16.70;15.80;;;27.10;99.20;;;;;;5012391;28;20799;-77
2021/07/26 07:58:38;;;;;;;17.07;16.03;;;26.90;99.60;;;;;;5013661;28;20456;-77
2021/07/26 08:01:06;;;;;;;16.87;15.70;;;26.90;99.90;;;;;;5013618;28;20465;-78
2021/07/26 08:03:33;;;;;;;16.20;15.10;;;27.30;99.50;;;;;;5013399;28;20504;-78
2021/07/26 08:06:01;;;;;;;16.97;15.77;;;27.70;98.90;;;;;;5013253;28;20445;-78
2021/07/26 08:08:29;;;;;;;16.60;15.70;;;28.10;98.50;;;;;;5013225;28;20964;-78
2021/07/26 08:10:56;;;;;;;16.50;15.63;;;27.90;98.30;;;;;;5013163;28;21011;-78
2021/07/26 08:13:24;;;;;;;17.53;16.30;;;27.70;98.50;;;;;;5013339;28;20481;-78
2021/07/26 08:15:52;;;;;;;17.00;15.60;;;28.10;98.30;;;;;;5013043;28;20949;-79
2021/07/26 08:18:20;;;;;;;16.93;16.13;;;28.60;97.30;;;;;;5013188;28;20455;-79
2021/07/26 08:20:47;;;;;;;16.57;15.57;;;28.20;97.80;;;;;;5013356;28;20937;-79
2021/07/26 08:23:14;;;;;;;17.57;16.50;;;28.50;98.30;;;;;;5013222;28;20450;-80
2021/07/26 08:25:41;;;;;;;16.27;15.57;;;29.30;96.00;;;;;;5012990;28;20465;-79
2021/07/26 08:28:08;;;;;;;16.13;15.33;;;29.30;95.90;;;;;;5013100;28;20459;-78
2021/07/26 08:30:36;;;;;;;16.80;16.00;;;28.90;96.40;;;;;;5012949;28;20469;-77
2021/07/26 08:33:04;;;;;;;15.90;14.90;;;28.40;97.20;;;;;;5012824;28;20521;-78
2021/07/26 08:35:32;;;;;;;16.37;15.43;;;28.00;98.00;;;;;;5012120;28;20454;-77
2021/07/26 08:37:59;;;;;;;16.67;15.53;;;28.00;98.30;;;;;;5012807;28;20661;-78
2021/07/26 08:40:27;;;;;;;17.27;16.37;;;28.00;98.00;;;;;;5012715;28;20446;-78
2021/07/26 08:42:56;;;;;;;17.03;16.20;;;28.30;97.00;;;;;;5012724;28;20458;-79
2021/07/26 08:45:23;;;;;;;16.47;15.57;;;28.90;96.70;;;;;;5012690;28;20453;-79
2021/07/26 08:47:50;;;;;;;16.83;15.83;;;29.70;94.80;;;;;;5012945;28;21004;-79
2021/07/26 08:50:19;;;;;;;16.40;15.30;;;30.20;93.50;;;;;;5012895;28;20450;-79
2021/07/26 08:52:49;;;;;;;16.70;15.73;;;31.10;91.80;;;;;;5012666;28;20486;-79
2021/07/26 08:55:18;;;;;;;14.90;14.20;;;31.30;91.20;;;;;;5012933;28;20461;-76
2021/07/26 08:57:46;;;;;;;15.60;14.60;;;31.00;90.70;;;;;;5007261;28;20957;-75
2021/07/26 09:00:14;;;;;;;15.27;14.57;;;30.70;91.80;;;;;;5011549;28;20478;-74
2021/07/26 09:02:41;;;;;;;16.17;15.27;;;31.10;90.90;;;;;;5011916;28;20485;-75
2021/07/26 09:05:09;;;;;;;16.63;15.83;;;32.10;87.70;;;;;;5010580;28;20461;-75
2021/07/26 09:07:41;;;;;;;16.00;15.37;;;33.10;84.50;;;;;;5012140;28;20496;-75
2021/07/26 09:10:17;;;;;;;17.37;16.10;;;33.80;83.20;;;;;;5011992;28;20453;-75
2021/07/26 09:12:45;;;;;;;16.77;16.17;;;34.40;82.50;;;;;;5011721;28;21008;-75
2021/07/26 09:15:32;;;;;;;17.17;16.27;;;34.70;78.00;;;;;;5011876;28;20465;-74
2021/07/26 09:18:00;;;;;;;17.03;16.33;;;34.30;77.90;;;;;;5011689;28;20825;-75
2021/07/26 09:20:31;;;;;;;17.80;16.97;;;34.00;78.80;;;;;;5011851;28;21636;-75
2021/07/26 09:22:59;;;;;;;17.60;16.77;;;34.30;76.40;;;;;;5011872;28;20963;-75
2021/07/26 09:25:28;;;;;;;17.63;16.63;;;34.00;75.70;;;;;;5011679;28;20460;-75
2021/07/26 09:28:03;;;;;;;17.30;16.60;;;33.70;77.00;;;;;;5012017;28;20446;-74
2021/07/26 09:30:34;;;;;;;16.83;15.83;;;33.70;76.60;;;;;;5011447;28;20961;-74
2021/07/26 09:33:02;;;;;;;16.17;15.47;;;33.30;76.90;;;;;;5011565;28;20493;-75
2021/07/26 09:35:28;;;;;;;16.67;15.93;;;33.20;78.00;;;;;;5011489;28;20480;-75
2021/07/26 09:38:00;;;;;;;15.33;14.73;;;33.20;77.20;;;;;;5011378;28;20457;-74
2021/07/26 09:40:32;;;;;;;16.73;15.90;;;33.10;76.60;;;;;;5011378;28;20450;-74
2021/07/26 09:43:16;;;;;;;15.93;15.13;;;32.50;78.50;;;;;;5011527;28;20965;-75
2021/07/26 09:45:43;;;;;;;15.47;14.77;;;31.30;81.90;;;;;;5011348;28;20450;-74
2021/07/26 09:48:12;;;;;;;17.00;16.10;;;31.30;84.10;;;;;;5011421;28;20454;-75
2021/07/26 09:50:40;;;;;;;16.67;15.97;;;32.50;80.20;;;;;;5011566;28;20464;-75
2021/07/26 09:53:11;;;;;;;17.27;16.37;;;33.50;77.20;;;;;;5011555;28;20516;-76
2021/07/26 09:55:41;;;;;;;17.47;16.60;;;34.60;73.10;;;;;;5011367;28;20450;-75
2021/07/26 09:58:09;;;;;;;18.00;17.20;;;35.50;70.30;;;;;;5011581;28;20508;-75
2021/07/26 10:00:37;;;;;;;17.50;16.47;;;34.80;72.90;;;;;;5011304;28;20977;-75
2021/07/26 10:03:06;;;;;;;16.70;15.97;;;34.80;71.30;;;;;;5011099;28;20482;-75
2021/07/26 10:05:35;;;;;;;18.03;17.13;;;34.90;69.70;;;;;;5010965;28;20478;-75
2021/07/26 10:08:02;;;;;;;15.70;15.10;;;33.80;71.90;;;;;;5010861;28;20452;-74
2021/07/26 10:10:30;;;;;;;15.80;15.10;;;32.90;73.70;;;;;;5011066;28;20656;-75
2021/07/26 10:12:59;;;;;;;16.10;15.30;;;32.30;76.20;;;;;;5010726;28;20961;-75
2021/07/26 10:15:28;;;;;;;17.07;16.27;;;32.70;76.00;;;;;;5011836;28;20454;-75
2021/07/26 10:17:55;;;;;;;17.30;16.60;;;33.10;74.60;;;;;;5011242;28;20540;-75
2021/07/26 10:20:23;;;;;;;17.70;17.00;;;34.10;72.60;;;;;;5011172;28;20473;-75
2021/07/26 10:22:53;;;;;;;17.57;16.87;;;35.50;67.50;;;;;;5011636;28;20446;-75
2021/07/26 10:25:27;;;;;;;17.27;16.43;;;35.90;66.90;;;;;;5012174;28;20461;-76
2021/07/26 10:28:00;;;;;;;16.83;16.23;;;36.70;64.50;;;;;;5010907;28;20461;-76
2021/07/26 10:30:35;;;;;;;17.60;16.60;;;37.60;61.40;;;;;;5011039;28;20453;-75
2021/07/26 10:33:03;;;;;;;17.80;17.10;;;38.10;58.50;;;;;;5010538;28;20489;-76
2021/07/26 10:35:48;;;;;;;18.90;18.00;;;39.30;55.70;;;;;;5010652;28;20461;-76
2021/07/26 10:38:29;;;;;;;18.37;17.60;;;39.90;54.80;;;;;;5010454;28;20449;-75
2021/07/26 10:40:56;;;;;;;16.30;15.60;;;38.80;54.30;;;;;;5010344;28;20504;-75
2021/07/26 10:43:58;;;;;;;18.37;17.57;;;34.90;61.20;;;;;;5010761;28;20438;-74
2021/07/26 10:46:25;;;;;;;17.20;16.50;;;33.30;66.30;;;;;;5010371;28;20931;-75
2021/07/26 10:48:52;;;;;;;17.00;16.10;;;32.80;68.00;;;;;;5010669;28;20500;-75
2021/07/26 10:51:38;;;;;;;16.90;16.20;;;33.20;68.80;;;;;;5010470;28;20446;-75
2021/07/26 10:54:07;;;;;;;16.20;15.50;;;33.70;65.80;;;;;;5010502;28;20492;-76
2021/07/26 10:57:06;;;;;;;17.10;16.40;;;34.60;64.10;;;;;;5010460;28;20880;-75
2021/07/26 11:00:06;;;;;;;16.20;15.60;;;36.40;60.70;;;;;;5010321;28;20552;-75
2021/07/26 11:02:35;;;;;;;16.80;16.10;;;37.30;59.10;;;;;;5010014;28;20508;-75
2021/07/26 11:05:33;;;;;;;17.03;16.33;;;37.70;57.50;;;;;;5010323;28;20442;-75
2021/07/26 11:08:25;;;;;;;16.50;15.60;;;37.20;57.00;;;;;;5010246;28;20478;-75
2021/07/26 11:10:53;;;;;;;16.63;15.93;;;36.10;58.90;;;;;;5010554;28;20453;-74
2021/07/26 11:13:20;;;;;;;16.70;16.00;;;34.60;61.70;;;;;;5010257;28;20522;-75
2021/07/26 11:15:48;;;;;;;16.90;16.20;;;33.90;64.30;;;;;;5010096;28;20460;-74
2021/07/26 11:18:29;;;;;;;17.50;16.60;;;33.50;65.00;;;;;;5010074;28;21009;-75
2021/07/26 11:21:05;;;;;;;17.00;16.20;;;33.40;66.10;;;;;;5010074;28;20454;-75
2021/07/26 11:23:55;;;;;;;16.90;16.20;;;34.50;64.30;;;;;;5010086;28;20437;-75
2021/07/26 11:26:29;;;;;;;16.70;15.90;;;34.20;64.00;;;;;;5010414;28;20450;-74
2021/07/26 11:28:58;;;;;;;17.30;16.50;;;33.10;66.10;;;;;;5010101;28;20900;-75
2021/07/26 11:31:30;;;;;;;17.00;16.30;;;33.10;67.20;;;;;;5010148;28;20457;-75
2021/07/26 11:34:09;;;;;;;16.93;16.23;;;33.20;67.30;;;;;;5009806;28;20486;-75
2021/07/26 11:36:36;;;;;;;17.60;16.50;;;33.30;66.30;;;;;;5010234;28;20572;-75
2021/07/26 11:39:08;;;;;;;17.33;16.63;;;33.70;65.30;;;;;;5009847;28;20830;-75
2021/07/26 11:41:35;;;;;;;17.83;17.03;;;34.50;64.60;;;;;;5010073;28;20454;-75
2021/07/26 11:44:02;;;;;;;17.33;16.53;;;35.60;62.90;;;;;;5009925;28;20446;-75
2021/07/26 11:46:29;;;;;;;16.83;16.23;;;35.10;61.70;;;;;;5009656;28;20452;-75
2021/07/26 11:48:58;;;;;;;16.70;15.83;;;35.40;61.10;;;;;;5009747;28;20793;-74
2021/07/26 11:51:27;;;;;;;17.97;17.17;;;34.60;62.60;;;;;;5009700;28;20475;-74
2021/07/26 11:54:02;;;;;;;15.90;15.20;;;34.10;63.70;;;;;;5009755;28;20496;-75
2021/07/26 11:56:29;;;;;;;16.87;16.07;;;33.40;65.10;;;;;;5009735;28;20445;-75
2021/07/26 11:59:18;;;;;;;17.03;16.23;;;32.70;67.70;;;;;;5009622;28;20465;-75
2021/07/26 12:01:49;;;;;;;16.90;16.00;;;32.70;66.90;;;;;;5009325;28;20508;-75
2021/07/26 12:04:16;;;;;;;16.53;15.80;;;32.70;67.20;;;;;;5009273;28;20442;-75
2021/07/26 12:06:53;;;;;;;17.80;16.80;;;32.20;69.30;;;;;;5009344;28;20576;-75
2021/07/26 12:09:20;;;;;;;17.03;16.23;;;31.60;70.60;;;;;;5009930;28;20515;-75
2021/07/26 12:11:47;;;;;;;15.33;14.73;;;31.10;72.20;;;;;;5012937;28;20449;-75
2021/07/26 12:14:31;;;;;;;15.30;14.57;;;30.80;73.40;;;;;;5012902;28;20488;-75
2021/07/26 12:17:12;;;;;;;15.77;15.00;;;30.50;75.40;;;;;;5012805;28;20809;-75
2021/07/26 12:19:40;;;;;;;15.10;14.50;;;30.30;76.70;;;;;;5013138;28;20457;-75
2021/07/26 12:22:22;;;;;;;16.10;15.30;;;30.20;77.60;;;;;;5013146;28;20820;-75
2021/07/26 12:24:54;;;;;;;16.40;15.23;;;29.70;79.90;;;;;;5013049;28;20813;-75
2021/07/26 12:27:29;;;;;;;15.80;15.07;;;28.70;82.80;;;;;;5013031;28;20555;-75
2021/07/26 12:29:57;;;;;;;16.10;15.30;;;28.40;86.90;;;;;;5012580;28;20460;-74
2021/07/26 12:32:24;;;;;;;15.10;14.40;;;28.00;89.60;;;;;;5012533;28;20504;-75
2021/07/26 12:35:21;;;;;;;16.00;15.27;;;27.40;91.90;;;;;;5012658;28;20485;-74
2021/07/26 12:38:02;;;;;;;15.80;15.10;;;27.20;93.60;;;;;;5012676;28;20457;-75
2021/07/26 12:40:32;;;;;;;15.73;15.00;;;26.80;95.10;;;;;;5012294;28;20460;-75
2021/07/26 12:43:10;;;;;;;16.50;15.63;;;26.40;96.60;;;;;;5012326;28;20489;-75
2021/07/26 12:45:38;;;;;;;15.27;14.67;;;26.20;98.20;;;;;;5012505;28;20460;-76
2021/07/26 12:48:15;;;;;;;14.90;14.17;;;26.00;99.30;;;;;;5012412;28;20540;-74
2021/07/26 12:50:44;;;;;;;13.90;13.30;;;25.90;98.00;;;;;;5012145;28;20454;-74
2021/07/26 12:53:12;;;;;;;13.97;13.27;;;25.70;98.00;;;;;;5011835;28;20489;-75
2021/07/26 12:55:39;;;;;;;15.83;14.73;;;25.60;98.30;;;;;;5012602;28;20442;-75
2021/07/26 12:58:06;;;;;;;17.73;15.13;;;25.70;97.70;;;;;;5012696;28;20568;-75
2021/07/26 13:00:34;;;;;;;13.83;13.33;;;25.60;98.30;;;;;;5012311;28;20999;-75
2021/07/26 13:03:01;;;;;;;13.93;13.43;;;25.50;98.60;;;;;;5012142;28;20513;-74
2021/07/26 13:05:28;;;;;;;14.47;13.87;;;25.30;98.70;;;;;;5012178;28;20485;-75
2021/07/26 13:07:55;;;;;;;15.03;14.00;;;25.50;99.20;;;;;;5012274;28;20453;-75
2021/07/26 13:10:23;;;;;;;15.10;14.20;;;25.90;98.70;;;;;;5012446;28;20446;-75
2021/07/26 13:12:49;;;;;;;14.37;13.40;;;26.20;97.70;;;;;;5012455;28;20449;-75
2021/07/26 13:15:16;;;;;;;13.80;13.30;;;26.00;97.60;;;;;;5012119;28;20905;-75
2021/07/26 13:17:43;;;;;;;14.00;13.43;;;26.20;97.60;;;;;;5012103;28;20497;-75
2021/07/26 13:20:10;;;;;;;14.93;14.13;;;26.20;97.80;;;;;;5011887;28;20461;-76
2021/07/26 13:22:38;;;;;;;14.33;13.70;;;26.30;98.40;;;;;;5012323;28;20450;-75
2021/07/26 13:25:06;;;;;;;13.73;13.20;;;26.40;97.70;;;;;;5012110;28;20457;-75
2021/07/26 13:27:35;;;;;;;15.60;14.30;;;26.70;97.50;;;;;;5011976;28;20454;-75
2021/07/26 13:30:01;;;;;;;14.83;14.13;;;27.00;96.70;;;;;;5011516;28;20453;-75
2021/07/26 13:32:28;;;;;;;14.70;14.10;;;28.10;95.10;;;;;;5011844;28;20454;-75
2021/07/26 13:34:55;;;;;;;15.30;14.70;;;29.00;93.80;;;;;;5011563;28;20569;-75
2021/07/26 13:37:22;;;;;;;15.27;14.40;;;28.90;92.80;;;;;;5011814;28;20811;-75
2021/07/26 13:39:48;;;;;;;14.40;13.90;;;28.20;93.00;;;;;;5011697;28;20446;-75
2021/07/26 13:42:15;;;;;;;14.07;13.50;;;27.70;93.70;;;;;;5011572;28;20588;-75
2021/07/26 13:44:43;;;;;;;14.67;13.87;;;27.70;94.30;;;;;;5011387;28;20446;-75
2021/07/26 13:47:10;;;;;;;14.80;14.10;;;28.10;93.80;;;;;;5011580;28;20487;-75
2021/07/26 13:49:37;;;;;;;14.77;14.17;;;27.90;93.40;;;;;;5011809;28;20465;-75
2021/07/26 13:52:04;;;;;;;13.60;13.10;;;27.80;94.00;;;;;;5011725;28;20445;-75
2021/07/26 13:54:30;;;;;;;14.30;13.80;;;27.90;93.90;;;;;;5011277;28;20545;-74
2021/07/26 13:56:57;;;;;;;14.47;13.77;;;28.00;93.30;;;;;;5011374;28;20450;-74
2021/07/26 13:59:24;;;;;;;15.27;14.60;;;27.90;93.60;;;;;;5011410;28;20461;-74
2021/07/26 14:01:52;;;;;;;14.27;13.60;;;27.70;93.80;;;;;;5011140;28;20496;-73
2021/07/26 14:04:18;;;;;;;15.43;14.80;;;27.40;94.10;;;;;;5011083;28;20457;-73
2021/07/26 14:06:45;;;;;;;16.10;14.80;;;27.10;94.80;;;;;;5011110;28;20842;-74
2021/07/26 14:09:12;;;;;;;16.43;15.00;;;27.20;95.40;;;;;;5011080;28;20453;-74
2021/07/26 14:11:39;;;;;;;14.80;13.90;;;27.30;94.90;;;;;;5011243;28;20454;-74
2021/07/26 14:14:06;;;;;;;14.47;13.70;;;27.10;95.50;;;;;;5011206;28;20521;-73
2021/07/26 14:16:32;;;;;;;14.83;14.13;;;26.90;97.30;;;;;;5010935;28;20469;-74
2021/07/26 14:19:00;;;;;;;15.03;14.33;;;26.50;98.90;;;;;;5011050;28;20454;-73
2021/07/26 14:21:27;;;;;;;13.83;13.23;;;26.10;99.90;;;;;;5010927;28;20454;-73
2021/07/26 14:23:54;;;;;;;15.30;14.50;;;26.00;99.90;;;;;;5011048;28;20445;-73
2021/07/26 14:26:21;;;;;;;15.60;14.70;;;25.60;99.90;;;;;;5011147;28;20488;-73
2021/07/26 14:28:48;;;;;;;15.00;14.30;;;25.20;99.90;;;;;;5010919;28;20544;-73
2021/07/26 14:31:15;;;;;;;15.93;14.67;;;24.90;99.90;;;;;;5010743;28;20453;-72
2021/07/26 14:33:41;;;;;;;14.00;13.30;;;24.80;99.90;;;;;;5010107;28;20531;-72
2021/07/26 14:36:09;;;;;;;15.40;14.70;;;24.90;99.90;;;;;;5010796;28;20458;-73
2021/07/26 14:38:36;;;;;;;14.90;14.20;;;24.80;99.90;;;;;;5011025;28;20504;-73
2021/07/26 14:41:03;;;;;;;16.30;15.23;;;24.50;99.90;;;;;;5010637;28;20446;-73
2021/07/26 14:43:30;;;;;;;15.13;14.40;;;24.10;99.90;;;;;;5010852;28;20669;-73
2021/07/26 14:45:56;;;;;;;15.10;14.23;;;24.00;99.90;;;;;;5010616;28;20465;-73
2021/07/26 14:48:23;;;;;;;35.40;32.50;;;23.80;99.90;;;;;;5010782;28;20453;-71
2021/07/26 14:50:50;;;;;;;47.77;44.47;;;23.60;99.90;;;;;;5010775;28;20446;-73
2021/07/26 14:53:20;;;;;;;52.63;49.27;;;22.90;99.90;;;;;;5010629;28;20446;-71
2021/07/26 14:55:48;;;;;;;49.13;46.43;;;22.00;99.90;;;;;;5010341;28;20543;-72
2021/07/26 14:58:15;;;;;;;47.33;44.93;;;21.30;99.90;;;;;;5010548;28;20766;-71
2021/07/26 15:00:42;;;;;;;47.83;44.90;;;20.90;99.90;;;;;;5010444;28;20477;-73
2021/07/26 15:03:09;;;;;;;52.10;48.80;;;20.80;99.90;;;;;;5010365;28;20486;-72
2021/07/26 15:05:35;;;;;;;50.17;47.33;;;20.60;99.90;;;;;;5010605;28;20442;-72
2021/07/26 15:08:02;;;;;;;47.90;45.30;;;20.40;99.90;;;;;;5010476;28;20504;-72
2021/07/26 15:10:31;;;;;;;50.00;46.87;;;20.20;99.90;;;;;;5010355;28;20534;-71
2021/07/26 15:12:59;;;;;;;48.90;46.30;;;20.00;99.90;;;;;;5010387;28;20454;-71
2021/07/26 15:15:26;;;;;;;47.40;44.70;;;20.10;99.90;;;;;;5010181;28;20491;-70
2021/07/26 15:17:52;;;;;;;46.73;43.97;;;20.10;99.90;;;;;;5010442;28;20449;-69
2021/07/26 15:20:19;;;;;;;45.60;42.70;;;20.00;99.90;;;;;;5010459;28;20442;-70
2021/07/26 15:22:46;;;;;;;46.83;43.57;;;19.90;99.90;;;;;;5010518;28;20805;-71
2021/07/26 15:25:13;;;;;;;47.33;44.40;;;19.80;99.90;;;;;;5010341;28;20774;-71
2021/07/26 15:27:41;;;;;;;47.37;44.60;;;19.70;99.90;;;;;;5010317;28;20480;-70
2021/07/26 15:30:08;;;;;;;48.03;44.83;;;19.90;99.90;;;;;;5010249;28;20458;-70
2021/07/26 15:32:37;;;;;;;46.10;43.50;;;20.10;99.90;;;;;;5010455;28;20458;-71
2021/07/26 15:35:04;;;;;;;46.43;42.90;;;20.30;99.90;;;;;;5010176;28;20521;-71
2021/07/26 15:37:31;;;;;;;44.53;42.03;;;20.40;99.90;;;;;;5010118;28;20476;-71
2021/07/26 15:39:58;;;;;;;44.90;42.50;;;20.40;99.90;;;;;;5010101;28;20476;-71
2021/07/26 15:42:25;;;;;;;44.97;42.07;;;20.30;99.90;;;;;;5009987;28;20592;-72
2021/07/26 15:44:53;;;;;;;45.77;42.63;;;20.30;99.90;;;;;;5013288;28;20450;-72
2021/07/26 15:47:20;;;;;;;45.40;42.60;;;20.50;99.90;;;;;;5014161;28;20453;-72
2021/07/26 15:49:46;;;;;;;44.07;41.60;;;20.80;99.90;;;;;;5013668;28;20479;-71
2021/07/26 15:52:13;;;;;;;44.30;41.67;;;21.20;99.90;;;;;;5013679;28;20875;-72
2021/07/26 15:54:40;;;;;;;41.97;39.67;;;21.20;99.90;;;;;;5013574;28;20493;-72
2021/07/26 15:57:07;;;;;;;42.30;40.17;;;21.30;99.90;;;;;;5013833;28;20541;-73
2021/07/26 15:59:34;;;;;;;41.53;39.30;;;21.40;99.90;;;;;;5013757;28;20450;-72
2021/07/26 16:02:04;;;;;;;37.97;36.17;;;21.50;99.90;;;;;;5013228;28;20493;-73
2021/07/26 16:04:30;;;;;;;33.73;32.30;;;21.50;99.90;;;;;;5013388;28;20446;-72
2021/07/26 16:06:57;;;;;;;29.13;27.83;;;21.30;99.90;;;;;;5013428;28;20740;-72
2021/07/26 16:09:24;;;;;;;28.93;27.43;;;21.00;99.90;;;;;;5013515;28;20454;-72
2021/07/26 16:11:50;;;;;;;31.40;29.43;;;20.90;99.90;;;;;;5013701;28;20458;-72
2021/07/26 16:14:17;;;;;;;29.77;28.10;;;20.70;99.90;;;;;;5013078;28;20485;-73
2021/07/26 16:16:44;;;;;;;29.83;28.03;;;20.60;99.90;;;;;;5013153;28;20461;-73
2021/07/26 16:19:12;;;;;;;30.43;28.73;;;20.50;99.90;;;;;;5013221;28;20453;-72
2021/07/26 16:21:39;;;;;;;28.83;27.43;;;20.40;99.90;;;;;;5013336;28;20461;-73
2021/07/26 16:24:06;;;;;;;30.67;28.87;;;20.20;99.90;;;;;;5013460;28;20843;-72
2021/07/26 16:26:33;;;;;;;29.00;27.20;;;20.20;99.90;;;;;;5013176;28;20457;-73
2021/07/26 16:29:01;;;;;;;27.07;25.67;;;20.20;99.90;;;;;;5013137;28;20460;-73
2021/07/26 16:31:27;;;;;;;26.53;24.83;;;20.20;99.90;;;;;;5012879;28;21164;-73
2021/07/26 16:33:54;;;;;;;23.90;22.70;;;20.40;99.90;;;;;;5013186;28;20461;-74
2021/07/26 16:36:22;;;;;;;19.87;18.97;;;20.40;99.90;;;;;;5013293;28;20509;-73
2021/07/26 16:38:49;;;;;;;19.13;18.33;;;20.30;99.90;;;;;;5012902;28;20446;-73